sensor_id;sensor_type;location;lat;lon;timestamp;pressure;altitude;pressure_sealevel;temperature;humidity
54455;BME280;40364;52.270;10.546;2022-12-08T00:01:13;99830.97;;;11.73;63.18
54455;BME280;40364;52.270;10.546;2022-12-08T00:03:41;99833.03;;;12.94;58.57
54455;BME280;40364;52.270;10.546;2022-12-08T00:06:16;99827.44;;;12.41;60.55
54455;BME280;40364;52.270;10.546;2022-12-08T00:09:02;99819.09;;;11.19;64.63
54455;BME280;40364;52.270;10.546;2022-12-08T00:11:50;99806.97;;;11.88;64.05
54455;BME280;40364;52.270;10.546;2022-12-08T00:14:17;99814.16;;;11.70;63.11
54455;BME280;40364;52.270;10.546;2022-12-08T00:16:44;99815.44;;;11.53;64.80
54455;BME280;40364;52.270;10.546;2022-12-08T00:19:10;99820.09;;;11.68;63.48
54455;BME280;40364;52.270;10.546;2022-12-08T00:21:37;99821.00;;;11.53;64.04
54455;BME280;40364;52.270;10.546;2022-12-08T00:24:04;99805.88;;;11.16;67.83
54455;BME280;40364;52.270;10.546;2022-12-08T00:26:31;99812.56;;;11.11;67.76
54455;BME280;40364;52.270;10.546;2022-12-08T00:28:59;99804.84;;;11.43;65.27
54455;BME280;40364;52.270;10.546;2022-12-08T00:31:26;99801.03;;;11.51;65.41
54455;BME280;40364;52.270;10.546;2022-12-08T00:33:52;99798.69;;;11.95;61.16
54455;BME280;40364;52.270;10.546;2022-12-08T00:36:19;99797.91;;;11.75;62.71
54455;BME280;40364;52.270;10.546;2022-12-08T00:38:46;99789.22;;;12.00;60.99
54455;BME280;40364;52.270;10.546;2022-12-08T00:41:15;99796.53;;;12.31;61.47
54455;BME280;40364;52.270;10.546;2022-12-08T00:43:42;99794.97;;;11.26;65.45
54455;BME280;40364;52.270;10.546;2022-12-08T00:46:10;99789.13;;;12.42;61.11
54455;BME280;40364;52.270;10.546;2022-12-08T00:48:37;99796.13;;;10.71;67.07
54455;BME280;40364;52.270;10.546;2022-12-08T00:51:04;99794.00;;;10.99;67.30
54455;BME280;40364;52.270;10.546;2022-12-08T00:53:30;99791.22;;;11.38;64.44
54455;BME280;40364;52.270;10.546;2022-12-08T00:55:57;99787.38;;;11.07;64.17
54455;BME280;40364;52.270;10.546;2022-12-08T00:58:24;99795.78;;;10.72;67.35
54455;BME280;40364;52.270;10.546;2022-12-08T01:00:51;99786.75;;;10.44;68.51
54455;BME280;40364;52.270;10.546;2022-12-08T01:03:19;99788.84;;;11.78;63.36
54455;BME280;40364;52.270;10.546;2022-12-08T01:05:45;99792.75;;;10.62;67.42
54455;BME280;40364;52.270;10.546;2022-12-08T01:08:12;99780.78;;;12.19;61.82
54455;BME280;40364;52.270;10.546;2022-12-08T01:10:39;99780.34;;;11.52;63.27
54455;BME280;40364;52.270;10.546;2022-12-08T01:13:06;99776.31;;;11.11;65.71
54455;BME280;40364;52.270;10.546;2022-12-08T01:15:32;99781.91;;;11.11;65.02
54455;BME280;40364;52.270;10.546;2022-12-08T01:18:00;99779.72;;;11.20;66.24
54455;BME280;40364;52.270;10.546;2022-12-08T01:20:28;99782.75;;;12.41;60.96
54455;BME280;40364;52.270;10.546;2022-12-08T01:22:55;99782.09;;;11.60;63.08
54455;BME280;40364;52.270;10.546;2022-12-08T01:25:22;99774.78;;;13.60;55.03
54455;BME280;40364;52.270;10.546;2022-12-08T01:27:51;99773.91;;;12.13;60.18
54455;BME280;40364;52.270;10.546;2022-12-08T01:30:18;99775.19;;;11.96;59.10
54455;BME280;40364;52.270;10.546;2022-12-08T01:32:44;99781.22;;;13.00;56.58
54455;BME280;40364;52.270;10.546;2022-12-08T01:35:11;99779.38;;;12.85;56.67
54455;BME280;40364;52.270;10.546;2022-12-08T01:37:40;99777.44;;;11.68;60.29
54455;BME280;40364;52.270;10.546;2022-12-08T01:40:08;99772.59;;;11.23;64.38
54455;BME280;40364;52.270;10.546;2022-12-08T01:42:35;99771.56;;;11.31;61.74
54455;BME280;40364;52.270;10.546;2022-12-08T01:45:04;99766.97;;;11.61;61.67
54455;BME280;40364;52.270;10.546;2022-12-08T01:47:36;99763.00;;;11.62;61.70
54455;BME280;40364;52.270;10.546;2022-12-08T01:50:06;99776.06;;;11.77;60.98
54455;BME280;40364;52.270;10.546;2022-12-08T01:52:36;99767.53;;;11.70;60.83
54455;BME280;40364;52.270;10.546;2022-12-08T01:55:09;99775.69;;;12.02;60.53
54455;BME280;40364;52.270;10.546;2022-12-08T01:57:40;99771.88;;;11.26;61.74
54455;BME280;40364;52.270;10.546;2022-12-08T02:00:11;99764.00;;;11.73;59.46
54455;BME280;40364;52.270;10.546;2022-12-08T02:02:45;99760.28;;;11.24;60.59
54455;BME280;40364;52.270;10.546;2022-12-08T02:05:15;99764.44;;;11.14;62.10
54455;BME280;40364;52.270;10.546;2022-12-08T02:07:43;99762.31;;;11.07;61.37
54455;BME280;40364;52.270;10.546;2022-12-08T02:10:15;99756.66;;;12.07;57.77
54455;BME280;40364;52.270;10.546;2022-12-08T02:12:42;99753.59;;;11.70;58.71
54455;BME280;40364;52.270;10.546;2022-12-08T02:15:09;99758.72;;;11.88;57.65
54455;BME280;40364;52.270;10.546;2022-12-08T02:17:47;99754.22;;;11.60;59.83
54455;BME280;40364;52.270;10.546;2022-12-08T02:20:48;99749.16;;;11.89;58.00
54455;BME280;40364;52.270;10.546;2022-12-08T02:23:25;99746.44;;;11.73;59.00
54455;BME280;40364;52.270;10.546;2022-12-08T02:26:13;99750.69;;;11.44;61.26
54455;BME280;40364;52.270;10.546;2022-12-08T02:29:03;99745.00;;;10.79;62.82
54455;BME280;40364;52.270;10.546;2022-12-08T02:31:42;99738.09;;;11.96;58.35
54455;BME280;40364;52.270;10.546;2022-12-08T02:34:21;99740.78;;;12.11;57.87
54455;BME280;40364;52.270;10.546;2022-12-08T02:36:52;99733.09;;;11.40;60.20
54455;BME280;40364;52.270;10.546;2022-12-08T02:39:31;99728.00;;;10.84;63.10
54455;BME280;40364;52.270;10.546;2022-12-08T02:42:09;99726.47;;;11.90;58.48
54455;BME280;40364;52.270;10.546;2022-12-08T02:44:40;99731.59;;;11.23;61.83
54455;BME280;40364;52.270;10.546;2022-12-08T02:47:11;99717.56;;;11.62;59.01
54455;BME280;40364;52.270;10.546;2022-12-08T02:49:41;99721.09;;;11.59;59.44
54455;BME280;40364;52.270;10.546;2022-12-08T02:52:42;99726.31;;;12.06;56.64
54455;BME280;40364;52.270;10.546;2022-12-08T02:55:16;99718.25;;;10.94;61.75
54455;BME280;40364;52.270;10.546;2022-12-08T02:57:48;99718.84;;;11.45;58.62
54455;BME280;40364;52.270;10.546;2022-12-08T03:00:19;99723.13;;;11.81;58.04
54455;BME280;40364;52.270;10.546;2022-12-08T03:02:55;99719.94;;;12.05;56.61
54455;BME280;40364;52.270;10.546;2022-12-08T03:05:40;99715.88;;;11.15;59.65
54455;BME280;40364;52.270;10.546;2022-12-08T03:08:15;99719.78;;;10.91;60.78
54455;BME280;40364;52.270;10.546;2022-12-08T03:10:51;99717.28;;;10.86;60.99
54455;BME280;40364;52.270;10.546;2022-12-08T03:13:24;99708.94;;;11.47;60.03
54455;BME280;40364;52.270;10.546;2022-12-08T03:15:54;99718.53;;;12.71;54.52
54455;BME280;40364;52.270;10.546;2022-12-08T03:18:25;99708.19;;;11.08;60.00
54455;BME280;40364;52.270;10.546;2022-12-08T03:20:54;99704.28;;;11.13;58.99
54455;BME280;40364;52.270;10.546;2022-12-08T03:23:23;99703.38;;;11.93;56.14
54455;BME280;40364;52.270;10.546;2022-12-08T03:26:07;99695.44;;;11.72;57.47
54455;BME280;40364;52.270;10.546;2022-12-08T03:28:36;99697.34;;;11.45;58.53
54455;BME280;40364;52.270;10.546;2022-12-08T03:31:06;99691.09;;;10.71;62.04
54455;BME280;40364;52.270;10.546;2022-12-08T03:33:37;99688.31;;;11.52;58.21
54455;BME280;40364;52.270;10.546;2022-12-08T03:36:07;99683.13;;;10.89;60.44
54455;BME280;40364;52.270;10.546;2022-12-08T03:38:41;99676.66;;;11.04;59.32
54455;BME280;40364;52.270;10.546;2022-12-08T03:41:08;99679.31;;;11.62;56.53
54455;BME280;40364;52.270;10.546;2022-12-08T03:43:45;99674.28;;;11.06;58.02
54455;BME280;40364;52.270;10.546;2022-12-08T03:46:12;99679.44;;;11.04;59.74
54455;BME280;40364;52.270;10.546;2022-12-08T03:48:38;99681.69;;;11.60;56.30
54455;BME280;40364;52.270;10.546;2022-12-08T03:51:05;99675.94;;;10.69;59.91
54455;BME280;40364;52.270;10.546;2022-12-08T03:53:32;99675.06;;;11.91;55.80
54455;BME280;40364;52.270;10.546;2022-12-08T03:56:02;99666.44;;;11.12;59.07
54455;BME280;40364;52.270;10.546;2022-12-08T03:58:29;99673.59;;;10.90;59.02
54455;BME280;40364;52.270;10.546;2022-12-08T04:00:56;99660.44;;;11.10;59.18
54455;BME280;40364;52.270;10.546;2022-12-08T04:03:22;99661.59;;;10.67;60.42
54455;BME280;40364;52.270;10.546;2022-12-08T04:05:50;99664.22;;;10.60;60.84
54455;BME280;40364;52.270;10.546;2022-12-08T04:08:17;99672.38;;;10.18;62.26
54455;BME280;40364;52.270;10.546;2022-12-08T04:10:43;99662.44;;;10.71;60.26
54455;BME280;40364;52.270;10.546;2022-12-08T04:13:12;99654.25;;;10.97;60.06
54455;BME280;40364;52.270;10.546;2022-12-08T04:15:39;99651.19;;;11.06;59.05
54455;BME280;40364;52.270;10.546;2022-12-08T04:18:10;99661.69;;;10.35;61.41
54455;BME280;40364;52.270;10.546;2022-12-08T04:20:39;99645.56;;;11.02;58.44
54455;BME280;40364;52.270;10.546;2022-12-08T04:23:06;99650.38;;;11.47;57.52
54455;BME280;40364;52.270;10.546;2022-12-08T04:25:34;99643.88;;;11.40;56.74
54455;BME280;40364;52.270;10.546;2022-12-08T04:28:01;99644.00;;;11.47;56.37
54455;BME280;40364;52.270;10.546;2022-12-08T04:30:29;99644.19;;;12.07;55.36
54455;BME280;40364;52.270;10.546;2022-12-08T04:32:56;99635.97;;;11.68;54.53
54455;BME280;40364;52.270;10.546;2022-12-08T04:35:23;99640.50;;;12.89;52.41
54455;BME280;40364;52.270;10.546;2022-12-08T04:37:51;99636.38;;;12.16;54.01
54455;BME280;40364;52.270;10.546;2022-12-08T04:40:17;99640.13;;;12.01;54.77
54455;BME280;40364;52.270;10.546;2022-12-08T04:42:45;99639.28;;;11.51;55.47
54455;BME280;40364;52.270;10.546;2022-12-08T04:45:12;99645.69;;;12.01;55.42
54455;BME280;40364;52.270;10.546;2022-12-08T04:47:40;99638.16;;;12.95;52.34
54455;BME280;40364;52.270;10.546;2022-12-08T04:50:08;99635.50;;;11.40;56.90
54455;BME280;40364;52.270;10.546;2022-12-08T04:52:35;99643.06;;;11.85;55.02
54455;BME280;40364;52.270;10.546;2022-12-08T04:55:03;99630.03;;;12.19;54.05
54455;BME280;40364;52.270;10.546;2022-12-08T04:57:31;99635.81;;;11.80;55.54
54455;BME280;40364;52.270;10.546;2022-12-08T04:59:58;99632.72;;;12.12;53.48
54455;BME280;40364;52.270;10.546;2022-12-08T05:02:24;99630.56;;;11.53;55.21
54455;BME280;40364;52.270;10.546;2022-12-08T05:04:52;99619.94;;;12.41;53.95
54455;BME280;40364;52.270;10.546;2022-12-08T05:07:19;99623.28;;;11.48;53.97
54455;BME280;40364;52.270;10.546;2022-12-08T05:09:46;99617.53;;;11.83;55.16
54455;BME280;40364;52.270;10.546;2022-12-08T05:12:13;99619.88;;;11.35;54.99
54455;BME280;40364;52.270;10.546;2022-12-08T05:14:40;99612.75;;;11.38;56.30
54455;BME280;40364;52.270;10.546;2022-12-08T05:17:07;99615.03;;;11.32;55.47
54455;BME280;40364;52.270;10.546;2022-12-08T05:19:34;99612.81;;;11.41;57.19
54455;BME280;40364;52.270;10.546;2022-12-08T05:22:02;99612.00;;;11.41;56.20
54455;BME280;40364;52.270;10.546;2022-12-08T05:24:31;99603.41;;;12.59;52.94
54455;BME280;40364;52.270;10.546;2022-12-08T05:26:58;99609.06;;;11.30;56.02
54455;BME280;40364;52.270;10.546;2022-12-08T05:29:32;99606.13;;;10.81;59.02
54455;BME280;40364;52.270;10.546;2022-12-08T05:31:59;99608.22;;;12.02;54.51
54455;BME280;40364;52.270;10.546;2022-12-08T05:34:26;99611.41;;;11.51;56.60
54455;BME280;40364;52.270;10.546;2022-12-08T05:36:54;99598.97;;;11.71;54.39
54455;BME280;40364;52.270;10.546;2022-12-08T05:39:22;99597.78;;;12.25;54.00
54455;BME280;40364;52.270;10.546;2022-12-08T05:41:49;99600.50;;;11.20;55.58
54455;BME280;40364;52.270;10.546;2022-12-08T05:44:16;99603.34;;;11.00;57.01
54455;BME280;40364;52.270;10.546;2022-12-08T05:46:43;99604.31;;;11.80;55.51
54455;BME280;40364;52.270;10.546;2022-12-08T05:49:09;99595.41;;;11.48;55.07
54455;BME280;40364;52.270;10.546;2022-12-08T05:51:37;99606.84;;;11.89;55.12
54455;BME280;40364;52.270;10.546;2022-12-08T05:54:04;99602.84;;;10.95;58.14
54455;BME280;40364;52.270;10.546;2022-12-08T05:56:32;99599.56;;;11.12;58.90
54455;BME280;40364;52.270;10.546;2022-12-08T05:58:58;99596.25;;;11.06;57.55
54455;BME280;40364;52.270;10.546;2022-12-08T06:01:27;99596.53;;;10.78;59.62
54455;BME280;40364;52.270;10.546;2022-12-08T06:03:57;99590.16;;;11.69;56.64
54455;BME280;40364;52.270;10.546;2022-12-08T06:06:24;99587.03;;;11.02;58.10
54455;BME280;40364;52.270;10.546;2022-12-08T06:08:51;99587.38;;;10.97;58.23
54455;BME280;40364;52.270;10.546;2022-12-08T06:11:19;99586.94;;;11.90;54.87
54455;BME280;40364;52.270;10.546;2022-12-08T06:13:47;99581.84;;;11.73;55.91
54455;BME280;40364;52.270;10.546;2022-12-08T06:16:14;99584.44;;;11.59;55.57
54455;BME280;40364;52.270;10.546;2022-12-08T06:18:41;99586.56;;;11.92;54.50
54455;BME280;40364;52.270;10.546;2022-12-08T06:21:09;99578.88;;;11.62;56.38
54455;BME280;40364;52.270;10.546;2022-12-08T06:23:37;99584.47;;;11.62;55.74
54455;BME280;40364;52.270;10.546;2022-12-08T06:26:06;99575.13;;;12.00;55.66
54455;BME280;40364;52.270;10.546;2022-12-08T06:28:34;99573.88;;;11.98;54.80
54455;BME280;40364;52.270;10.546;2022-12-08T06:31:08;99579.88;;;11.73;56.10
54455;BME280;40364;52.270;10.546;2022-12-08T06:33:36;99579.91;;;11.05;58.21
54455;BME280;40364;52.270;10.546;2022-12-08T06:36:03;99586.63;;;11.00;58.34
54455;BME280;40364;52.270;10.546;2022-12-08T06:38:29;99592.84;;;11.62;56.00
54455;BME280;40364;52.270;10.546;2022-12-08T06:40:57;99581.19;;;11.30;57.22
54455;BME280;40364;52.270;10.546;2022-12-08T06:43:24;99579.63;;;11.10;57.81
54455;BME280;40364;52.270;10.546;2022-12-08T06:45:51;99571.78;;;12.18;55.75
54455;BME280;40364;52.270;10.546;2022-12-08T06:48:19;99584.13;;;11.41;58.37
54455;BME280;40364;52.270;10.546;2022-12-08T06:50:46;99580.03;;;12.40;54.95
54455;BME280;40364;52.270;10.546;2022-12-08T06:53:14;99574.97;;;11.18;58.52
54455;BME280;40364;52.270;10.546;2022-12-08T06:55:42;99581.28;;;11.37;59.03
54455;BME280;40364;52.270;10.546;2022-12-08T06:58:10;99585.53;;;11.28;58.73
54455;BME280;40364;52.270;10.546;2022-12-08T07:00:38;99587.47;;;11.04;59.83
54455;BME280;40364;52.270;10.546;2022-12-08T07:03:05;99588.84;;;11.37;59.14
54455;BME280;40364;52.270;10.546;2022-12-08T07:05:34;99590.38;;;11.57;58.28
54455;BME280;40364;52.270;10.546;2022-12-08T07:08:00;99584.28;;;10.83;60.55
54455;BME280;40364;52.270;10.546;2022-12-08T07:10:27;99593.44;;;11.26;59.13
54455;BME280;40364;52.270;10.546;2022-12-08T07:12:54;99585.66;;;10.51;60.88
54455;BME280;40364;52.270;10.546;2022-12-08T07:15:21;99586.69;;;10.62;63.91
54455;BME280;40364;52.270;10.546;2022-12-08T07:17:48;99584.81;;;11.57;60.55
54455;BME280;40364;52.270;10.546;2022-12-08T07:20:15;99598.00;;;11.83;58.68
54455;BME280;40364;52.270;10.546;2022-12-08T07:22:48;99593.78;;;11.01;61.87
54455;BME280;40364;52.270;10.546;2022-12-08T07:25:15;99587.31;;;10.74;64.16
54455;BME280;40364;52.270;10.546;2022-12-08T07:27:42;99592.25;;;10.62;64.42
54455;BME280;40364;52.270;10.546;2022-12-08T07:30:09;99597.88;;;10.65;66.44
54455;BME280;40364;52.270;10.546;2022-12-08T07:32:36;99599.13;;;10.49;68.05
54455;BME280;40364;52.270;10.546;2022-12-08T07:35:04;99600.13;;;10.79;67.90
54455;BME280;40364;52.270;10.546;2022-12-08T07:37:32;99601.09;;;11.32;64.36
54455;BME280;40364;52.270;10.546;2022-12-08T07:40:00;99598.16;;;11.71;63.12
54455;BME280;40364;52.270;10.546;2022-12-08T07:42:27;99587.59;;;11.80;62.73
54455;BME280;40364;52.270;10.546;2022-12-08T07:44:54;99597.03;;;11.75;60.95
54455;BME280;40364;52.270;10.546;2022-12-08T07:47:20;99611.88;;;11.79;60.91
54455;BME280;40364;52.270;10.546;2022-12-08T07:49:47;99602.34;;;11.80;61.72
54455;BME280;40364;52.270;10.546;2022-12-08T07:52:14;99610.53;;;12.23;57.94
54455;BME280;40364;52.270;10.546;2022-12-08T07:54:40;99601.88;;;12.31;59.44
54455;BME280;40364;52.270;10.546;2022-12-08T07:57:08;99608.19;;;11.98;60.63
54455;BME280;40364;52.270;10.546;2022-12-08T07:59:35;99602.56;;;12.88;58.05
54455;BME280;40364;52.270;10.546;2022-12-08T08:02:02;99603.78;;;10.83;65.84
54455;BME280;40364;52.270;10.546;2022-12-08T08:04:28;99595.09;;;11.53;64.59
54455;BME280;40364;52.270;10.546;2022-12-08T08:06:55;99606.47;;;11.90;64.43
54455;BME280;40364;52.270;10.546;2022-12-08T08:09:22;99599.75;;;10.80;67.93
54455;BME280;40364;52.270;10.546;2022-12-08T08:11:49;99600.88;;;11.67;65.48
54455;BME280;40364;52.270;10.546;2022-12-08T08:14:18;99609.31;;;12.50;61.77
54455;BME280;40364;52.270;10.546;2022-12-08T08:16:45;99614.09;;;11.70;63.69
54455;BME280;40364;52.270;10.546;2022-12-08T08:19:11;99600.19;;;11.97;62.55
54455;BME280;40364;52.270;10.546;2022-12-08T08:21:38;99615.06;;;11.78;63.37
54455;BME280;40364;52.270;10.546;2022-12-08T08:24:05;99603.97;;;11.13;66.82
54455;BME280;40364;52.270;10.546;2022-12-08T08:26:32;99602.19;;;10.82;71.33
54455;BME280;40364;52.270;10.546;2022-12-08T08:28:59;99612.34;;;11.62;65.70
54455;BME280;40364;52.270;10.546;2022-12-08T08:31:27;99599.38;;;12.53;63.15
54455;BME280;40364;52.270;10.546;2022-12-08T08:33:55;99605.00;;;12.00;64.46
54455;BME280;40364;52.270;10.546;2022-12-08T08:36:22;99601.53;;;11.11;67.82
54455;BME280;40364;52.270;10.546;2022-12-08T08:38:48;99601.34;;;12.22;63.62
54455;BME280;40364;52.270;10.546;2022-12-08T08:41:15;99606.31;;;11.34;67.54
54455;BME280;40364;52.270;10.546;2022-12-08T08:43:42;99612.00;;;11.87;65.13
54455;BME280;40364;52.270;10.546;2022-12-08T08:46:09;99600.88;;;11.18;67.74
54455;BME280;40364;52.270;10.546;2022-12-08T08:48:37;99610.47;;;10.98;71.78
54455;BME280;40364;52.270;10.546;2022-12-08T08:51:08;99611.25;;;11.67;66.69
54455;BME280;40364;52.270;10.546;2022-12-08T08:53:35;99609.78;;;11.50;67.90
54455;BME280;40364;52.270;10.546;2022-12-08T08:56:03;99606.16;;;11.72;66.34
54455;BME280;40364;52.270;10.546;2022-12-08T08:58:33;99610.50;;;11.01;70.28
54455;BME280;40364;52.270;10.546;2022-12-08T09:00:59;99605.63;;;10.75;70.51
54455;BME280;40364;52.270;10.546;2022-12-08T09:03:26;99615.22;;;10.97;69.65
54455;BME280;40364;52.270;10.546;2022-12-08T09:05:55;99612.16;;;11.48;70.57
54455;BME280;40364;52.270;10.546;2022-12-08T09:08:22;99609.09;;;11.11;69.63
54455;BME280;40364;52.270;10.546;2022-12-08T09:10:49;99611.00;;;11.75;66.12
54455;BME280;40364;52.270;10.546;2022-12-08T09:13:15;99606.22;;;12.29;64.36
54455;BME280;40364;52.270;10.546;2022-12-08T09:15:42;99616.28;;;12.67;60.93
54455;BME280;40364;52.270;10.546;2022-12-08T09:18:09;99617.31;;;12.22;63.65
54455;BME280;40364;52.270;10.546;2022-12-08T09:20:36;99616.41;;;11.19;70.17
54455;BME280;40364;52.270;10.546;2022-12-08T09:23:04;99611.78;;;11.76;67.33
54455;BME280;40364;52.270;10.546;2022-12-08T09:25:31;99609.91;;;11.57;68.54
54455;BME280;40364;52.270;10.546;2022-12-08T09:27:57;99618.00;;;11.89;67.73
54455;BME280;40364;52.270;10.546;2022-12-08T09:30:24;99620.59;;;11.29;66.90
54455;BME280;40364;52.270;10.546;2022-12-08T09:32:51;99617.13;;;10.93;70.49
54455;BME280;40364;52.270;10.546;2022-12-08T09:35:17;99619.72;;;10.63;71.78
54455;BME280;40364;52.270;10.546;2022-12-08T09:37:44;99612.28;;;10.90;71.80
54455;BME280;40364;52.270;10.546;2022-12-08T09:40:15;99614.56;;;11.99;65.85
54455;BME280;40364;52.270;10.546;2022-12-08T09:42:48;99616.50;;;11.03;70.80
54455;BME280;40364;52.270;10.546;2022-12-08T09:45:17;99621.41;;;11.10;71.42
54455;BME280;40364;52.270;10.546;2022-12-08T09:47:46;99624.53;;;11.28;71.82
54455;BME280;40364;52.270;10.546;2022-12-08T09:50:17;99615.66;;;12.47;65.20
54455;BME280;40364;52.270;10.546;2022-12-08T09:52:52;99623.09;;;13.88;58.03
54455;BME280;40364;52.270;10.546;2022-12-08T09:55:35;99611.19;;;13.09;60.42
54455;BME280;40364;52.270;10.546;2022-12-08T09:58:03;99617.81;;;13.31;57.46
54455;BME280;40364;52.270;10.546;2022-12-08T10:00:35;99615.59;;;11.19;67.52
54455;BME280;40364;52.270;10.546;2022-12-08T10:03:02;99616.28;;;11.58;68.03
54455;BME280;40364;52.270;10.546;2022-12-08T10:05:31;99608.31;;;11.56;67.87
54455;BME280;40364;52.270;10.546;2022-12-08T10:08:04;99619.34;;;11.26;71.83
54455;BME280;40364;52.270;10.546;2022-12-08T10:10:38;99611.66;;;11.42;71.18
54455;BME280;40364;52.270;10.546;2022-12-08T10:13:13;99611.50;;;12.67;64.30
54455;BME280;40364;52.270;10.546;2022-12-08T10:15:46;99615.44;;;13.33;60.13
54455;BME280;40364;52.270;10.546;2022-12-08T10:18:17;99612.03;;;11.18;70.60
54455;BME280;40364;52.270;10.546;2022-12-08T10:20:46;99608.09;;;11.91;68.54
54455;BME280;40364;52.270;10.546;2022-12-08T10:23:20;99606.91;;;12.82;64.64
54455;BME280;40364;52.270;10.546;2022-12-08T10:25:51;99604.75;;;13.05;61.06
54455;BME280;40364;52.270;10.546;2022-12-08T10:28:20;99603.03;;;13.31;59.62
54455;BME280;40364;52.270;10.546;2022-12-08T10:30:47;99603.03;;;13.75;58.67
54455;BME280;40364;52.270;10.546;2022-12-08T10:33:15;99608.25;;;13.83;57.66
54455;BME280;40364;52.270;10.546;2022-12-08T10:35:45;99610.69;;;12.67;59.16
54455;BME280;40364;52.270;10.546;2022-12-08T10:38:21;99608.50;;;13.61;58.39
54455;BME280;40364;52.270;10.546;2022-12-08T10:40:52;99609.66;;;13.56;58.29
54455;BME280;40364;52.270;10.546;2022-12-08T10:43:21;99607.38;;;13.25;59.83
54455;BME280;40364;52.270;10.546;2022-12-08T10:45:50;99613.13;;;13.90;56.95
54455;BME280;40364;52.270;10.546;2022-12-08T10:48:18;99605.72;;;13.64;58.50
54455;BME280;40364;52.270;10.546;2022-12-08T10:50:47;99589.50;;;12.32;60.47
54455;BME280;40364;52.270;10.546;2022-12-08T10:53:20;99587.69;;;13.14;62.33
54455;BME280;40364;52.270;10.546;2022-12-08T10:55:51;99579.78;;;14.40;57.13
54455;BME280;40364;52.270;10.546;2022-12-08T10:58:27;99585.53;;;13.92;57.07
54455;BME280;40364;52.270;10.546;2022-12-08T11:00:56;99589.16;;;14.69;53.73
54455;BME280;40364;52.270;10.546;2022-12-08T11:03:27;99587.38;;;14.32;55.29
54455;BME280;40364;52.270;10.546;2022-12-08T11:05:56;99585.38;;;14.29;55.06
54455;BME280;40364;52.270;10.546;2022-12-08T11:08:24;99587.91;;;13.87;54.76
54455;BME280;40364;52.270;10.546;2022-12-08T11:10:53;99585.78;;;14.38;53.64
54455;BME280;40364;52.270;10.546;2022-12-08T11:13:22;99596.34;;;14.59;52.65
54455;BME280;40364;52.270;10.546;2022-12-08T11:15:51;99591.56;;;14.70;52.89
54455;BME280;40364;52.270;10.546;2022-12-08T11:18:24;99593.97;;;14.65;52.39
54455;BME280;40364;52.270;10.546;2022-12-08T11:21:04;99595.00;;;13.73;54.73
54455;BME280;40364;52.270;10.546;2022-12-08T11:23:34;99580.53;;;14.26;53.69
54455;BME280;40364;52.270;10.546;2022-12-08T11:26:06;99590.81;;;14.04;54.96
54455;BME280;40364;52.270;10.546;2022-12-08T11:28:36;99589.00;;;14.33;52.97
54455;BME280;40364;52.270;10.546;2022-12-08T11:31:16;99596.72;;;14.54;52.80
54455;BME280;40364;52.270;10.546;2022-12-08T11:33:47;99592.44;;;14.09;53.24
54455;BME280;40364;52.270;10.546;2022-12-08T11:36:18;99595.13;;;13.91;53.46
54455;BME280;40364;52.270;10.546;2022-12-08T11:38:47;99589.25;;;14.97;51.58
54455;BME280;40364;52.270;10.546;2022-12-08T11:41:19;99587.72;;;15.96;49.10
54455;BME280;40364;52.270;10.546;2022-12-08T11:43:50;99582.69;;;14.54;51.50
54455;BME280;40364;52.270;10.546;2022-12-08T11:46:22;99601.59;;;13.99;55.47
54455;BME280;40364;52.270;10.546;2022-12-08T11:48:52;99591.56;;;13.94;54.58
54455;BME280;40364;52.270;10.546;2022-12-08T11:51:26;99584.09;;;14.20;53.13
54455;BME280;40364;52.270;10.546;2022-12-08T11:54:04;99590.38;;;13.99;54.50
54455;BME280;40364;52.270;10.546;2022-12-08T11:56:39;99581.22;;;13.51;53.84
54455;BME280;40364;52.270;10.546;2022-12-08T11:59:14;99584.34;;;14.69;51.40
54455;BME280;40364;52.270;10.546;2022-12-08T12:01:43;99594.31;;;14.56;50.81
54455;BME280;40364;52.270;10.546;2022-12-08T12:04:15;99594.53;;;13.64;53.17
54455;BME280;40364;52.270;10.546;2022-12-08T12:09:50;99592.66;;;12.94;56.88
54455;BME280;40364;52.270;10.546;2022-12-08T12:12:31;99585.91;;;13.36;55.07
54455;BME280;40364;52.270;10.546;2022-12-08T12:15:37;99587.34;;;14.25;53.62
54455;BME280;40364;52.270;10.546;2022-12-08T12:18:11;99596.63;;;13.78;53.70
54455;BME280;40364;52.270;10.546;2022-12-08T12:20:47;99586.69;;;13.88;53.92
54455;BME280;40364;52.270;10.546;2022-12-08T12:23:19;99586.41;;;14.87;51.74
54455;BME280;40364;52.270;10.546;2022-12-08T12:25:53;99588.31;;;14.58;51.43
54455;BME280;40364;52.270;10.546;2022-12-08T12:28:22;99591.81;;;14.40;51.64
54455;BME280;40364;52.270;10.546;2022-12-08T12:30:54;99590.44;;;14.06;53.14
54455;BME280;40364;52.270;10.546;2022-12-08T12:33:24;99599.31;;;13.64;54.36
54455;BME280;40364;52.270;10.546;2022-12-08T12:35:54;99594.59;;;12.53;57.41
54455;BME280;40364;52.270;10.546;2022-12-08T12:38:24;99592.31;;;12.66;58.23
54455;BME280;40364;52.270;10.546;2022-12-08T12:41:11;99591.78;;;12.90;56.06
54455;BME280;40364;52.270;10.546;2022-12-08T12:46:56;99590.88;;;14.15;53.04
54455;BME280;40364;52.270;10.546;2022-12-08T12:49:51;99584.84;;;15.00;49.95
54455;BME280;40364;52.270;10.546;2022-12-08T12:52:38;99584.09;;;15.17;49.62
54455;BME280;40364;52.270;10.546;2022-12-08T12:55:36;99584.50;;;15.23;49.44
54455;BME280;40364;52.270;10.546;2022-12-08T12:58:34;99594.88;;;14.14;50.72
54455;BME280;40364;52.270;10.546;2022-12-08T13:04:19;99589.94;;;13.93;52.47
54455;BME280;40364;52.270;10.546;2022-12-08T13:06:53;99581.22;;;13.51;53.63
54455;BME280;40364;52.270;10.546;2022-12-08T13:09:23;99581.59;;;14.00;52.07
54455;BME280;40364;52.270;10.546;2022-12-08T13:11:54;99587.16;;;14.73;50.32
54455;BME280;40364;52.270;10.546;2022-12-08T13:14:27;99595.66;;;13.56;52.27